sensor_id;sensor_type;location;lat;lon;timestamp;temperature;humidity
31639;DHT22;18248;51.522;7.020;2024-03-25T00:00:32;7.40;99.90
31639;DHT22;18248;51.522;7.020;2024-03-25T00:03:30;7.40;99.90
31639;DHT22;18248;51.522;7.020;2024-03-25T00:06:29;7.50;99.90
31639;DHT22;18248;51.522;7.020;2024-03-25T00:09:31;7.50;99.90
31639;DHT22;18248;51.522;7.020;2024-03-25T00:12:30;7.50;99.90
31639;DHT22;18248;51.522;7.020;2024-03-25T00:15:28;7.50;99.90
31639;DHT22;18248;51.522;7.020;2024-03-25T00:18:27;7.50;99.90
31639;DHT22;18248;51.522;7.020;2024-03-25T00:21:25;7.50;99.90
31639;DHT22;18248;51.522;7.020;2024-03-25T00:24:24;7.40;99.90
31639;DHT22;18248;51.522;7.020;2024-03-25T00:27:22;7.50;99.90
31639;DHT22;18248;51.522;7.020;2024-03-25T00:30:21;7.50;99.90
31639;DHT22;18248;51.522;7.020;2024-03-25T00:33:19;7.50;99.90
31639;DHT22;18248;51.522;7.020;2024-03-25T00:36:18;7.50;99.90
31639;DHT22;18248;51.522;7.020;2024-03-25T00:39:16;7.40;99.90
31639;DHT22;18248;51.522;7.020;2024-03-25T00:42:15;7.40;99.90
31639;DHT22;18248;51.522;7.020;2024-03-25T00:45:14;7.40;99.90
31639;DHT22;18248;51.522;7.020;2024-03-25T00:48:12;7.40;99.90
31639;DHT22;18248;51.522;7.020;2024-03-25T00:51:11;7.40;99.90
31639;DHT22;18248;51.522;7.020;2024-03-25T00:54:10;7.30;99.90
31639;DHT22;18248;51.522;7.020;2024-03-25T00:57:08;7.30;99.90
31639;DHT22;18248;51.522;7.020;2024-03-25T01:00:07;7.30;99.90
31639;DHT22;18248;51.522;7.020;2024-03-25T01:03:06;7.30;99.90
31639;DHT22;18248;51.522;7.020;2024-03-25T01:06:04;7.30;99.90
31639;DHT22;18248;51.522;7.020;2024-03-25T01:09:03;7.30;99.90
31639;DHT22;18248;51.522;7.020;2024-03-25T01:12:03;7.30;99.90
31639;DHT22;18248;51.522;7.020;2024-03-25T01:15:01;7.30;99.90
31639;DHT22;18248;51.522;7.020;2024-03-25T01:18:01;7.30;99.90
31639;DHT22;18248;51.522;7.020;2024-03-25T01:21:00;7.30;99.90
31639;DHT22;18248;51.522;7.020;2024-03-25T01:23:58;7.30;99.90
31639;DHT22;18248;51.522;7.020;2024-03-25T01:26:57;7.30;99.90
31639;DHT22;18248;51.522;7.020;2024-03-25T01:29:55;7.30;99.90
31639;DHT22;18248;51.522;7.020;2024-03-25T01:32:54;7.30;99.90
31639;DHT22;18248;51.522;7.020;2024-03-25T01:35:52;7.30;99.90
31639;DHT22;18248;51.522;7.020;2024-03-25T01:38:54;7.40;99.90
31639;DHT22;18248;51.522;7.020;2024-03-25T01:41:52;7.30;99.90
31639;DHT22;18248;51.522;7.020;2024-03-25T01:44:51;7.30;99.90
31639;DHT22;18248;51.522;7.020;2024-03-25T01:47:49;7.30;99.90
31639;DHT22;18248;51.522;7.020;2024-03-25T01:50:48;7.30;99.90
31639;DHT22;18248;51.522;7.020;2024-03-25T01:53:47;7.30;99.90
31639;DHT22;18248;51.522;7.020;2024-03-25T01:56:47;7.30;99.90
31639;DHT22;18248;51.522;7.020;2024-03-25T01:59:46;7.30;99.90
31639;DHT22;18248;51.522;7.020;2024-03-25T02:02:44;7.30;99.90
31639;DHT22;18248;51.522;7.020;2024-03-25T02:05:44;7.30;99.90
31639;DHT22;18248;51.522;7.020;2024-03-25T02:08:43;7.20;99.90
31639;DHT22;18248;51.522;7.020;2024-03-25T02:11:42;7.20;99.90
31639;DHT22;18248;51.522;7.020;2024-03-25T02:14:41;7.10;99.90
31639;DHT22;18248;51.522;7.020;2024-03-25T02:17:41;7.00;99.90
31639;DHT22;18248;51.522;7.020;2024-03-25T02:20:39;7.00;99.90
31639;DHT22;18248;51.522;7.020;2024-03-25T02:23:39;6.90;99.90
31639;DHT22;18248;51.522;7.020;2024-03-25T02:26:40;6.90;99.90
31639;DHT22;18248;51.522;7.020;2024-03-25T02:29:39;6.80;99.90
31639;DHT22;18248;51.522;7.020;2024-03-25T02:32:37;6.70;99.90
31639;DHT22;18248;51.522;7.020;2024-03-25T02:35:37;6.60;99.90
31639;DHT22;18248;51.522;7.020;2024-03-25T02:38:37;6.60;99.90
31639;DHT22;18248;51.522;7.020;2024-03-25T02:41:36;6.50;99.90
31639;DHT22;18248;51.522;7.020;2024-03-25T02:44:34;6.50;99.90
31639;DHT22;18248;51.522;7.020;2024-03-25T02:47:33;6.50;99.90
31639;DHT22;18248;51.522;7.020;2024-03-25T02:50:32;6.40;99.90
31639;DHT22;18248;51.522;7.020;2024-03-25T02:53:30;6.40;99.90
31639;DHT22;18248;51.522;7.020;2024-03-25T02:56:29;6.30;99.90
31639;DHT22;18248;51.522;7.020;2024-03-25T02:59:27;6.40;99.90
31639;DHT22;18248;51.522;7.020;2024-03-25T03:02:26;6.30;99.90
31639;DHT22;18248;51.522;7.020;2024-03-25T03:05:24;6.30;99.90
31639;DHT22;18248;51.522;7.020;2024-03-25T03:08:23;6.30;99.90
31639;DHT22;18248;51.522;7.020;2024-03-25T03:11:21;6.30;99.90
31639;DHT22;18248;51.522;7.020;2024-03-25T03:14:20;6.30;99.90
31639;DHT22;18248;51.522;7.020;2024-03-25T03:17:19;6.30;99.90
31639;DHT22;18248;51.522;7.020;2024-03-25T03:20:17;6.30;99.90
31639;DHT22;18248;51.522;7.020;2024-03-25T03:23:16;6.30;99.90
31639;DHT22;18248;51.522;7.020;2024-03-25T03:26:14;6.30;99.90
31639;DHT22;18248;51.522;7.020;2024-03-25T03:29:13;6.30;99.90
31639;DHT22;18248;51.522;7.020;2024-03-25T03:32:11;6.30;99.90
31639;DHT22;18248;51.522;7.020;2024-03-25T03:35:10;6.30;99.90
31639;DHT22;18248;51.522;7.020;2024-03-25T03:38:08;6.30;99.90
31639;DHT22;18248;51.522;7.020;2024-03-25T03:41:07;6.30;99.90
31639;DHT22;18248;51.522;7.020;2024-03-25T03:44:06;6.30;99.90
31639;DHT22;18248;51.522;7.020;2024-03-25T03:47:05;6.30;99.90
31639;DHT22;18248;51.522;7.020;2024-03-25T03:50:04;6.20;99.90
31639;DHT22;18248;51.522;7.020;2024-03-25T03:53:03;6.20;99.90
31639;DHT22;18248;51.522;7.020;2024-03-25T03:56:04;6.20;99.90
31639;DHT22;18248;51.522;7.020;2024-03-25T03:59:03;6.10;99.90
31639;DHT22;18248;51.522;7.020;2024-03-25T04:02:02;6.10;99.90
31639;DHT22;18248;51.522;7.020;2024-03-25T04:05:01;6.10;99.90
31639;DHT22;18248;51.522;7.020;2024-03-25T04:08:00;6.00;99.90
31639;DHT22;18248;51.522;7.020;2024-03-25T04:11:01;6.00;99.90
31639;DHT22;18248;51.522;7.020;2024-03-25T04:14:00;6.00;99.90
31639;DHT22;18248;51.522;7.020;2024-03-25T04:16:58;6.00;99.90
31639;DHT22;18248;51.522;7.020;2024-03-25T04:20:00;6.00;99.90
31639;DHT22;18248;51.522;7.020;2024-03-25T04:22:59;5.90;99.90
31639;DHT22;18248;51.522;7.020;2024-03-25T04:26:01;5.90;99.90
31639;DHT22;18248;51.522;7.020;2024-03-25T04:29:00;5.90;99.90
31639;DHT22;18248;51.522;7.020;2024-03-25T04:31:59;5.90;99.90
31639;DHT22;18248;51.522;7.020;2024-03-25T04:34:57;5.90;99.90
31639;DHT22;18248;51.522;7.020;2024-03-25T04:37:56;5.80;99.90
31639;DHT22;18248;51.522;7.020;2024-03-25T04:40:54;5.80;99.90
31639;DHT22;18248;51.522;7.020;2024-03-25T04:43:53;5.80;99.90
31639;DHT22;18248;51.522;7.020;2024-03-25T04:46:52;5.80;99.90
31639;DHT22;18248;51.522;7.020;2024-03-25T04:49:51;5.70;99.90
31639;DHT22;18248;51.522;7.020;2024-03-25T04:52:50;5.70;99.90
31639;DHT22;18248;51.522;7.020;2024-03-25T04:55:48;5.70;99.90
31639;DHT22;18248;51.522;7.020;2024-03-25T04:58:47;5.70;99.90
31639;DHT22;18248;51.522;7.020;2024-03-25T05:01:45;5.60;99.90
31639;DHT22;18248;51.522;7.020;2024-03-25T05:04:44;5.60;99.90
31639;DHT22;18248;51.522;7.020;2024-03-25T05:07:42;5.60;99.90
31639;DHT22;18248;51.522;7.020;2024-03-25T05:10:41;5.50;99.90
31639;DHT22;18248;51.522;7.020;2024-03-25T05:13:39;5.50;99.90
31639;DHT22;18248;51.522;7.020;2024-03-25T05:16:38;5.50;99.90
31639;DHT22;18248;51.522;7.020;2024-03-25T05:19:36;5.40;99.90
31639;DHT22;18248;51.522;7.020;2024-03-25T05:22:35;5.40;99.90
31639;DHT22;18248;51.522;7.020;2024-03-25T05:25:35;5.40;99.90
31639;DHT22;18248;51.522;7.020;2024-03-25T05:28:33;5.40;99.90
31639;DHT22;18248;51.522;7.020;2024-03-25T05:31:32;5.40;99.90
31639;DHT22;18248;51.522;7.020;2024-03-25T05:34:30;5.40;99.90
31639;DHT22;18248;51.522;7.020;2024-03-25T05:37:35;5.40;99.90
31639;DHT22;18248;51.522;7.020;2024-03-25T05:40:42;5.40;99.90
31639;DHT22;18248;51.522;7.020;2024-03-25T05:43:40;5.40;99.90
31639;DHT22;18248;51.522;7.020;2024-03-25T05:46:39;5.40;99.90
31639;DHT22;18248;51.522;7.020;2024-03-25T05:49:38;5.40;99.90
31639;DHT22;18248;51.522;7.020;2024-03-25T05:52:37;5.40;99.90
31639;DHT22;18248;51.522;7.020;2024-03-25T05:55:35;5.50;99.90
31639;DHT22;18248;51.522;7.020;2024-03-25T05:58:34;5.60;99.90
31639;DHT22;18248;51.522;7.020;2024-03-25T06:01:32;5.70;99.90
31639;DHT22;18248;51.522;7.020;2024-03-25T06:04:32;5.80;99.90
31639;DHT22;18248;51.522;7.020;2024-03-25T06:07:30;5.80;99.90
31639;DHT22;18248;51.522;7.020;2024-03-25T06:10:29;5.90;99.90
31639;DHT22;18248;51.522;7.020;2024-03-25T06:13:28;6.00;99.90
31639;DHT22;18248;51.522;7.020;2024-03-25T06:16:26;6.10;99.90
31639;DHT22;18248;51.522;7.020;2024-03-25T06:19:26;6.10;99.90
31639;DHT22;18248;51.522;7.020;2024-03-25T06:22:24;6.20;99.90
31639;DHT22;18248;51.522;7.020;2024-03-25T06:25:24;6.10;99.90
31639;DHT22;18248;51.522;7.020;2024-03-25T06:28:23;6.10;99.90
31639;DHT22;18248;51.522;7.020;2024-03-25T06:31:21;6.10;99.90
31639;DHT22;18248;51.522;7.020;2024-03-25T06:34:39;6.20;99.90
31639;DHT22;18248;51.522;7.020;2024-03-25T06:37:38;6.30;99.90
31639;DHT22;18248;51.522;7.020;2024-03-25T06:40:37;6.40;99.90
31639;DHT22;18248;51.522;7.020;2024-03-25T06:43:36;6.50;99.90
31639;DHT22;18248;51.522;7.020;2024-03-25T06:46:36;6.60;99.90
31639;DHT22;18248;51.522;7.020;2024-03-25T06:49:34;6.60;99.90
31639;DHT22;18248;51.522;7.020;2024-03-25T06:52:33;6.70;99.90
31639;DHT22;18248;51.522;7.020;2024-03-25T06:55:31;6.80;99.90
31639;DHT22;18248;51.522;7.020;2024-03-25T06:58:30;6.80;99.90
31639;DHT22;18248;51.522;7.020;2024-03-25T07:01:29;6.90;99.90
31639;DHT22;18248;51.522;7.020;2024-03-25T07:04:27;7.00;99.90
31639;DHT22;18248;51.522;7.020;2024-03-25T07:07:26;7.00;99.90
31639;DHT22;18248;51.522;7.020;2024-03-25T07:10:24;7.10;99.90
31639;DHT22;18248;51.522;7.020;2024-03-25T07:13:23;7.10;99.90
31639;DHT22;18248;51.522;7.020;2024-03-25T07:16:21;7.20;99.90
31639;DHT22;18248;51.522;7.020;2024-03-25T07:19:21;7.30;99.90
31639;DHT22;18248;51.522;7.020;2024-03-25T07:22:19;7.30;99.90
31639;DHT22;18248;51.522;7.020;2024-03-25T07:25:18;7.30;99.90
31639;DHT22;18248;51.522;7.020;2024-03-25T07:28:16;7.40;99.90
31639;DHT22;18248;51.522;7.020;2024-03-25T07:31:15;7.40;99.90
31639;DHT22;18248;51.522;7.020;2024-03-25T07:34:13;7.50;99.90
31639;DHT22;18248;51.522;7.020;2024-03-25T07:37:12;7.50;99.90
31639;DHT22;18248;51.522;7.020;2024-03-25T07:40:11;7.60;99.90
31639;DHT22;18248;51.522;7.020;2024-03-25T07:43:12;7.70;99.90
31639;DHT22;18248;51.522;7.020;2024-03-25T07:46:11;7.70;99.90
31639;DHT22;18248;51.522;7.020;2024-03-25T07:49:09;7.80;99.90
31639;DHT22;18248;51.522;7.020;2024-03-25T07:52:08;7.90;99.90
31639;DHT22;18248;51.522;7.020;2024-03-25T07:55:07;8.00;99.90
31639;DHT22;18248;51.522;7.020;2024-03-25T07:58:06;8.00;99.90
31639;DHT22;18248;51.522;7.020;2024-03-25T08:01:04;8.10;99.90
31639;DHT22;18248;51.522;7.020;2024-03-25T08:04:04;8.10;99.90
31639;DHT22;18248;51.522;7.020;2024-03-25T08:07:02;8.20;99.90
31639;DHT22;18248;51.522;7.020;2024-03-25T08:10:01;8.30;99.90
31639;DHT22;18248;51.522;7.020;2024-03-25T08:12:59;8.40;99.90
31639;DHT22;18248;51.522;7.020;2024-03-25T08:15:58;8.50;99.90
31639;DHT22;18248;51.522;7.020;2024-03-25T08:18:56;8.60;99.90
31639;DHT22;18248;51.522;7.020;2024-03-25T08:21:55;8.70;99.90
31639;DHT22;18248;51.522;7.020;2024-03-25T08:24:53;8.70;99.90
31639;DHT22;18248;51.522;7.020;2024-03-25T08:27:52;8.80;99.90
31639;DHT22;18248;51.522;7.020;2024-03-25T08:30:50;8.90;99.90
31639;DHT22;18248;51.522;7.020;2024-03-25T08:33:49;9.00;99.90
31639;DHT22;18248;51.522;7.020;2024-03-25T08:36:47;9.10;99.90
31639;DHT22;18248;51.522;7.020;2024-03-25T08:39:46;9.20;99.90
31639;DHT22;18248;51.522;7.020;2024-03-25T08:42:45;9.20;99.90
31639;DHT22;18248;51.522;7.020;2024-03-25T08:45:44;9.20;99.90
31639;DHT22;18248;51.522;7.020;2024-03-25T08:48:43;9.20;99.90
31639;DHT22;18248;51.522;7.020;2024-03-25T08:51:42;9.20;99.90
31639;DHT22;18248;51.522;7.020;2024-03-25T08:54:40;9.30;99.90
31639;DHT22;18248;51.522;7.020;2024-03-25T08:57:39;9.40;99.90
31639;DHT22;18248;51.522;7.020;2024-03-25T09:00:38;9.50;99.90
31639;DHT22;18248;51.522;7.020;2024-03-25T09:03:36;9.60;99.90
31639;DHT22;18248;51.522;7.020;2024-03-25T09:06:35;9.70;99.90
31639;DHT22;18248;51.522;7.020;2024-03-25T09:09:35;9.80;99.90
31639;DHT22;18248;51.522;7.020;2024-03-25T09:12:52;9.80;99.90
31639;DHT22;18248;51.522;7.020;2024-03-25T09:15:51;9.90;99.90
31639;DHT22;18248;51.522;7.020;2024-03-25T09:18:49;10.10;99.90
31639;DHT22;18248;51.522;7.020;2024-03-25T09:21:48;10.10;99.90
31639;DHT22;18248;51.522;7.020;2024-03-25T09:24:46;10.10;99.90
31639;DHT22;18248;51.522;7.020;2024-03-25T09:27:49;10.20;99.90
31639;DHT22;18248;51.522;7.020;2024-03-25T09:30:48;10.40;99.90
31639;DHT22;18248;51.522;7.020;2024-03-25T09:33:48;10.60;99.90
31639;DHT22;18248;51.522;7.020;2024-03-25T09:36:46;10.70;99.90
31639;DHT22;18248;51.522;7.020;2024-03-25T09:39:45;10.70;99.90
31639;DHT22;18248;51.522;7.020;2024-03-25T09:42:50;10.70;99.90
31639;DHT22;18248;51.522;7.020;2024-03-25T09:45:51;10.70;99.90
31639;DHT22;18248;51.522;7.020;2024-03-25T09:48:53;10.70;99.90
31639;DHT22;18248;51.522;7.020;2024-03-25T09:51:51;10.70;99.90
31639;DHT22;18248;51.522;7.020;2024-03-25T09:54:50;10.70;99.90
31639;DHT22;18248;51.522;7.020;2024-03-25T09:57:49;10.80;99.90
31639;DHT22;18248;51.522;7.020;2024-03-25T10:00:48;10.90;99.90
31639;DHT22;18248;51.522;7.020;2024-03-25T10:03:46;11.10;99.90
31639;DHT22;18248;51.522;7.020;2024-03-25T10:06:45;11.50;99.90
31639;DHT22;18248;51.522;7.020;2024-03-25T10:09:44;11.60;99.90
31639;DHT22;18248;51.522;7.020;2024-03-25T10:12:43;11.60;99.90
31639;DHT22;18248;51.522;7.020;2024-03-25T10:15:41;11.70;99.90
31639;DHT22;18248;51.522;7.020;2024-03-25T10:18:40;11.70;99.90
31639;DHT22;18248;51.522;7.020;2024-03-25T10:21:39;11.60;99.90
31639;DHT22;18248;51.522;7.020;2024-03-25T10:24:41;11.70;99.90
31639;DHT22;18248;51.522;7.020;2024-03-25T10:27:39;11.80;99.90
31639;DHT22;18248;51.522;7.020;2024-03-25T10:30:39;11.80;99.90
31639;DHT22;18248;51.522;7.020;2024-03-25T10:33:39;11.90;99.90
31639;DHT22;18248;51.522;7.020;2024-03-25T10:36:37;12.10;99.90
31639;DHT22;18248;51.522;7.020;2024-03-25T10:39:40;12.40;99.90
31639;DHT22;18248;51.522;7.020;2024-03-25T10:42:42;12.60;99.90
31639;DHT22;18248;51.522;7.020;2024-03-25T10:45:49;12.60;99.90
31639;DHT22;18248;51.522;7.020;2024-03-25T10:48:54;12.70;99.90
31639;DHT22;18248;51.522;7.020;2024-03-25T10:51:53;12.80;99.90
31639;DHT22;18248;51.522;7.020;2024-03-25T10:54:53;12.80;99.90
31639;DHT22;18248;51.522;7.020;2024-03-25T10:57:54;12.70;99.90
31639;DHT22;18248;51.522;7.020;2024-03-25T11:00:55;12.80;99.90
31639;DHT22;18248;51.522;7.020;2024-03-25T11:03:54;12.90;99.90
31639;DHT22;18248;51.522;7.020;2024-03-25T11:06:53;13.00;99.90
31639;DHT22;18248;51.522;7.020;2024-03-25T11:10:03;12.90;99.90
31639;DHT22;18248;51.522;7.020;2024-03-25T11:13:10;13.20;99.90
31639;DHT22;18248;51.522;7.020;2024-03-25T11:16:09;13.30;99.90
31639;DHT22;18248;51.522;7.020;2024-03-25T11:19:10;13.30;99.90
31639;DHT22;18248;51.522;7.020;2024-03-25T11:22:10;13.30;99.90
31639;DHT22;18248;51.522;7.020;2024-03-25T11:25:12;13.20;99.90
31639;DHT22;18248;51.522;7.020;2024-03-25T11:28:11;13.30;99.90
31639;DHT22;18248;51.522;7.020;2024-03-25T11:31:10;13.50;99.90
31639;DHT22;18248;51.522;7.020;2024-03-25T11:34:09;13.50;99.90
31639;DHT22;18248;51.522;7.020;2024-03-25T11:37:07;13.50;99.90
31639;DHT22;18248;51.522;7.020;2024-03-25T11:40:11;13.70;99.90
31639;DHT22;18248;51.522;7.020;2024-03-25T11:43:18;13.90;99.90
31639;DHT22;18248;51.522;7.020;2024-03-25T11:46:18;14.00;99.90
31639;DHT22;18248;51.522;7.020;2024-03-25T11:49:17;14.20;99.90
31639;DHT22;18248;51.522;7.020;2024-03-25T11:52:16;14.20;99.90
31639;DHT22;18248;51.522;7.020;2024-03-25T11:55:18;14.30;99.90
31639;DHT22;18248;51.522;7.020;2024-03-25T11:58:17;14.20;99.90
31639;DHT22;18248;51.522;7.020;2024-03-25T12:01:15;14.30;99.90
31639;DHT22;18248;51.522;7.020;2024-03-25T12:04:18;14.30;99.90
31639;DHT22;18248;51.522;7.020;2024-03-25T12:07:17;14.40;99.90
31639;DHT22;18248;51.522;7.020;2024-03-25T12:10:16;14.40;99.90
31639;DHT22;18248;51.522;7.020;2024-03-25T12:13:34;14.30;99.90
31639;DHT22;18248;51.522;7.020;2024-03-25T12:16:32;14.40;99.90
31639;DHT22;18248;51.522;7.020;2024-03-25T12:19:31;14.60;99.90
31639;DHT22;18248;51.522;7.020;2024-03-25T12:22:33;14.80;99.90
31639;DHT22;18248;51.522;7.020;2024-03-25T12:25:33;14.90;99.90
31639;DHT22;18248;51.522;7.020;2024-03-25T12:28:31;15.10;99.90
31639;DHT22;18248;51.522;7.020;2024-03-25T12:31:33;15.20;99.90
31639;DHT22;18248;51.522;7.020;2024-03-25T12:34:33;15.50;99.90
31639;DHT22;18248;51.522;7.020;2024-03-25T12:37:31;15.60;99.90
31639;DHT22;18248;51.522;7.020;2024-03-25T12:40:31;15.80;99.90
31639;DHT22;18248;51.522;7.020;2024-03-25T12:43:33;16.10;99.90
31639;DHT22;18248;51.522;7.020;2024-03-25T12:46:32;16.20;99.90
31639;DHT22;18248;51.522;7.020;2024-03-25T12:49:31;16.30;99.90
31639;DHT22;18248;51.522;7.020;2024-03-25T12:52:30;16.50;99.50
31639;DHT22;18248;51.522;7.020;2024-03-25T12:55:31;16.60;99.90
31639;DHT22;18248;51.522;7.020;2024-03-25T12:58:30;16.70;96.80
31639;DHT22;18248;51.522;7.020;2024-03-25T13:01:29;16.70;98.50
31639;DHT22;18248;51.522;7.020;2024-03-25T13:04:27;16.90;97.90
31639;DHT22;18248;51.522;7.020;2024-03-25T13:07:26;17.00;96.10
31639;DHT22;18248;51.522;7.020;2024-03-25T13:10:24;16.80;96.50
31639;DHT22;18248;51.522;7.020;2024-03-25T13:13:23;16.60;92.40
31639;DHT22;18248;51.522;7.020;2024-03-25T13:16:22;16.30;94.10
31639;DHT22;18248;51.522;7.020;2024-03-25T13:19:20;16.40;95.80
31639;DHT22;18248;51.522;7.020;2024-03-25T13:22:19;16.70;96.50
31639;DHT22;18248;51.522;7.020;2024-03-25T13:25:17;16.90;97.40
31639;DHT22;18248;51.522;7.020;2024-03-25T13:28:16;17.10;95.10
31639;DHT22;18248;51.522;7.020;2024-03-25T13:31:14;17.00;95.50
31639;DHT22;18248;51.522;7.020;2024-03-25T13:34:13;16.90;94.10
31639;DHT22;18248;51.522;7.020;2024-03-25T13:37:12;16.60;92.30
31639;DHT22;18248;51.522;7.020;2024-03-25T13:40:10;16.50;91.90
31639;DHT22;18248;51.522;7.020;2024-03-25T13:43:13;16.60;92.40
31639;DHT22;18248;51.522;7.020;2024-03-25T13:46:11;16.70;90.70
31639;DHT22;18248;51.522;7.020;2024-03-25T13:49:10;16.50;90.10
31639;DHT22;18248;51.522;7.020;2024-03-25T13:52:09;16.40;90.10
31639;DHT22;18248;51.522;7.020;2024-03-25T13:55:08;16.30;88.50
31639;DHT22;18248;51.522;7.020;2024-03-25T13:58:07;16.20;85.10
31639;DHT22;18248;51.522;7.020;2024-03-25T14:01:06;16.20;91.30
31639;DHT22;18248;51.522;7.020;2024-03-25T14:04:07;16.40;90.30
31639;DHT22;18248;51.522;7.020;2024-03-25T14:07:06;16.60;92.70
31639;DHT22;18248;51.522;7.020;2024-03-25T14:10:05;16.50;88.70
31639;DHT22;18248;51.522;7.020;2024-03-25T14:13:03;16.50;87.10
31639;DHT22;18248;51.522;7.020;2024-03-25T14:16:04;16.50;84.30
31639;DHT22;18248;51.522;7.020;2024-03-25T14:19:04;16.30;81.00
31639;DHT22;18248;51.522;7.020;2024-03-25T14:22:02;16.20;80.60
31639;DHT22;18248;51.522;7.020;2024-03-25T14:25:01;16.20;80.40
31639;DHT22;18248;51.522;7.020;2024-03-25T14:27:59;16.20;80.20
31639;DHT22;18248;51.522;7.020;2024-03-25T14:30:58;16.10;83.50
31639;DHT22;18248;51.522;7.020;2024-03-25T14:33:58;16.20;81.70
31639;DHT22;18248;51.522;7.020;2024-03-25T14:36:56;16.20;80.40
31639;DHT22;18248;51.522;7.020;2024-03-25T14:39:55;16.20;78.80
31639;DHT22;18248;51.522;7.020;2024-03-25T14:42:53;16.30;80.20
31639;DHT22;18248;51.522;7.020;2024-03-25T14:45:52;16.40;82.90
31639;DHT22;18248;51.522;7.020;2024-03-25T14:48:50;16.40;81.80
31639;DHT22;18248;51.522;7.020;2024-03-25T14:51:49;16.50;82.10
31639;DHT22;18248;51.522;7.020;2024-03-25T14:54:47;16.60;81.90
31639;DHT22;18248;51.522;7.020;2024-03-25T14:57:46;16.60;82.80
31639;DHT22;18248;51.522;7.020;2024-03-25T15:00:44;16.70;81.60
31639;DHT22;18248;51.522;7.020;2024-03-25T15:03:44;16.70;81.50
31639;DHT22;18248;51.522;7.020;2024-03-25T15:06:42;16.60;81.60
31639;DHT22;18248;51.522;7.020;2024-03-25T15:09:41;16.50;82.50
31639;DHT22;18248;51.522;7.020;2024-03-25T15:12:39;16.40;82.40
31639;DHT22;18248;51.522;7.020;2024-03-25T15:15:41;16.30;83.50
31639;DHT22;18248;51.522;7.020;2024-03-25T15:18:41;16.40;83.70
31639;DHT22;18248;51.522;7.020;2024-03-25T15:21:40;16.30;83.30
31639;DHT22;18248;51.522;7.020;2024-03-25T15:24:38;16.30;83.10
31639;DHT22;18248;51.522;7.020;2024-03-25T15:27:37;16.10;81.10
31639;DHT22;18248;51.522;7.020;2024-03-25T15:30:35;16.00;84.00
31639;DHT22;18248;51.522;7.020;2024-03-25T15:33:34;16.00;83.10
31639;DHT22;18248;51.522;7.020;2024-03-25T15:36:32;16.10;85.60
31639;DHT22;18248;51.522;7.020;2024-03-25T15:39:32;16.10;83.60
31639;DHT22;18248;51.522;7.020;2024-03-25T15:42:30;15.90;83.60
31639;DHT22;18248;51.522;7.020;2024-03-25T15:45:29;15.80;81.20
31639;DHT22;18248;51.522;7.020;2024-03-25T15:48:28;15.60;81.00
31639;DHT22;18248;51.522;7.020;2024-03-25T15:51:26;15.50;80.60
31639;DHT22;18248;51.522;7.020;2024-03-25T15:54:25;15.40;82.60
31639;DHT22;18248;51.522;7.020;2024-03-25T15:57:23;15.30;83.60
31639;DHT22;18248;51.522;7.020;2024-03-25T16:00:22;15.40;81.80
31639;DHT22;18248;51.522;7.020;2024-03-25T16:03:20;15.30;83.80
31639;DHT22;18248;51.522;7.020;2024-03-25T16:06:19;15.30;86.10
31639;DHT22;18248;51.522;7.020;2024-03-25T16:09:17;15.20;85.50
31639;DHT22;18248;51.522;7.020;2024-03-25T16:12:17;15.10;85.80
31639;DHT22;18248;51.522;7.020;2024-03-25T16:15:16;14.90;83.90
31639;DHT22;18248;51.522;7.020;2024-03-25T16:18:14;14.90;83.50
31639;DHT22;18248;51.522;7.020;2024-03-25T16:21:14;14.70;85.70
31639;DHT22;18248;51.522;7.020;2024-03-25T16:24:13;14.70;87.00
31639;DHT22;18248;51.522;7.020;2024-03-25T16:27:11;14.70;88.00
31639;DHT22;18248;51.522;7.020;2024-03-25T16:30:10;14.60;88.70
31639;DHT22;18248;51.522;7.020;2024-03-25T16:33:09;14.60;90.00
31639;DHT22;18248;51.522;7.020;2024-03-25T16:36:08;14.60;86.40
31639;DHT22;18248;51.522;7.020;2024-03-25T16:39:06;14.40;85.80
31639;DHT22;18248;51.522;7.020;2024-03-25T16:42:08;14.30;85.70
31639;DHT22;18248;51.522;7.020;2024-03-25T16:45:06;14.20;84.10
31639;DHT22;18248;51.522;7.020;2024-03-25T16:48:05;14.10;84.90
31639;DHT22;18248;51.522;7.020;2024-03-25T16:51:04;14.00;85.10
31639;DHT22;18248;51.522;7.020;2024-03-25T16:54:03;13.90;84.80
31639;DHT22;18248;51.522;7.020;2024-03-25T16:57:01;13.90;84.80
31639;DHT22;18248;51.522;7.020;2024-03-25T17:00:01;13.80;85.70
31639;DHT22;18248;51.522;7.020;2024-03-25T17:03:02;13.70;85.70
31639;DHT22;18248;51.522;7.020;2024-03-25T17:06:00;13.60;85.60
31639;DHT22;18248;51.522;7.020;2024-03-25T17:08:59;13.60;86.90
31639;DHT22;18248;51.522;7.020;2024-03-25T17:11:57;13.50;86.30
31639;DHT22;18248;51.522;7.020;2024-03-25T17:14:56;13.40;86.30
31639;DHT22;18248;51.522;7.020;2024-03-25T17:17:54;13.30;86.00
31639;DHT22;18248;51.522;7.020;2024-03-25T17:20:58;13.30;87.10
31639;DHT22;18248;51.522;7.020;2024-03-25T17:23:57;13.20;86.20
31639;DHT22;18248;51.522;7.020;2024-03-25T17:26:55;13.10;86.80
31639;DHT22;18248;51.522;7.020;2024-03-25T17:29:54;13.00;86.80
31639;DHT22;18248;51.522;7.020;2024-03-25T17:32:53;13.00;88.60
31639;DHT22;18248;51.522;7.020;2024-03-25T17:35:51;12.90;87.80
31639;DHT22;18248;51.522;7.020;2024-03-25T17:38:50;12.80;88.20
31639;DHT22;18248;51.522;7.020;2024-03-25T17:41:49;12.80;88.30
31639;DHT22;18248;51.522;7.020;2024-03-25T17:44:49;12.70;90.60
31639;DHT22;18248;51.522;7.020;2024-03-25T17:47:47;12.70;91.40
31639;DHT22;18248;51.522;7.020;2024-03-25T17:50:53;12.60;91.30
31639;DHT22;18248;51.522;7.020;2024-03-25T17:53:52;12.60;91.80
31639;DHT22;18248;51.522;7.020;2024-03-25T17:56:50;12.50;92.40
31639;DHT22;18248;51.522;7.020;2024-03-25T17:59:49;12.50;93.40
31639;DHT22;18248;51.522;7.020;2024-03-25T18:02:47;12.40;93.40
31639;DHT22;18248;51.522;7.020;2024-03-25T18:05:47;12.30;95.10
31639;DHT22;18248;51.522;7.020;2024-03-25T18:08:46;12.20;97.30
31639;DHT22;18248;51.522;7.020;2024-03-25T18:11:45;12.10;98.70
31639;DHT22;18248;51.522;7.020;2024-03-25T18:14:44;11.90;99.90
31639;DHT22;18248;51.522;7.020;2024-03-25T18:17:42;11.80;99.90
31639;DHT22;18248;51.522;7.020;2024-03-25T18:20:41;11.80;99.90
31639;DHT22;18248;51.522;7.020;2024-03-25T18:23:40;11.60;99.90
31639;DHT22;18248;51.522;7.020;2024-03-25T18:26:38;11.50;99.90
31639;DHT22;18248;51.522;7.020;2024-03-25T18:29:37;11.50;99.90
31639;DHT22;18248;51.522;7.020;2024-03-25T18:32:35;11.40;99.90
31639;DHT22;18248;51.522;7.020;2024-03-25T18:35:38;11.40;99.90
31639;DHT22;18248;51.522;7.020;2024-03-25T18:38:40;11.30;99.90
31639;DHT22;18248;51.522;7.020;2024-03-25T18:41:39;11.20;99.90
31639;DHT22;18248;51.522;7.020;2024-03-25T18:44:37;11.20;99.90
31639;DHT22;18248;51.522;7.020;2024-03-25T18:47:39;11.20;99.90
31639;DHT22;18248;51.522;7.020;2024-03-25T18:50:38;11.20;99.90
31639;DHT22;18248;51.522;7.020;2024-03-25T18:53:36;11.10;99.90
31639;DHT22;18248;51.522;7.020;2024-03-25T18:56:35;11.10;99.90
31639;DHT22;18248;51.522;7.020;2024-03-25T18:59:33;11.10;99.90